Time;durP1;ratioP1;P1;durP2;ratioP2;P2;SDS_P1;SDS_P2;PMS_P1;PMS_P2;Temp;Humidity;BMP_temperature;BMP_pressure;BME280_temperature;BME280_humidity;BME280_pressure;Samples;Min_cycle;Max_cycle;Signal;HPM_P1;HPM_P2
2022/06/17 00:00:50;;;;;;;15.43;8.30;;;;;;;;;;5037291;28;20509;-68
2022/06/17 00:03:16;;;;;;;12.83;7.90;;;;;;;;;;5022049;28;20040;-68
2022/06/17 00:05:41;;;;;;;12.50;7.97;;;;;;;;;;5049803;28;20025;-68
2022/06/17 00:08:11;;;;;;;12.30;8.13;;;;;;;;;;5050791;28;20021;-68
2022/06/17 00:10:36;;;;;;;12.77;8.53;;;;;;;;;;5043313;28;20464;-68
2022/06/17 00:13:02;;;;;;;16.67;8.27;;;;;;;;;;5047213;28;20035;-68
2022/06/17 00:15:30;;;;;;;13.33;8.87;;;;;;;;;;5047514;28;20503;-68
2022/06/17 00:17:55;;;;;;;14.73;9.50;;;;;;;;;;5024220;28;20017;-68
2022/06/17 00:20:22;;;;;;;14.37;9.37;;;;;;;;;;5031506;28;20518;-68
2022/06/17 00:22:47;;;;;;;13.07;9.40;;;;;;;;;;5033281;28;20095;-68
2022/06/17 00:25:15;;;;;;;13.53;9.23;;;;;;;;;;5033135;28;20039;-68
2022/06/17 00:27:40;;;;;;;15.67;10.37;;;;;;;;;;5031699;28;20039;-68
2022/06/17 00:30:16;;;;;;;16.83;10.90;;;;;;;;;;5033573;28;20462;-67
2022/06/17 00:32:42;;;;;;;14.33;9.60;;;;;;;;;;5035671;28;20060;-68
2022/06/17 00:35:07;;;;;;;16.00;10.20;;;;;;;;;;5035486;28;20136;-68
2022/06/17 00:37:32;;;;;;;15.47;10.13;;;;;;;;;;5032609;28;20025;-68
2022/06/17 00:39:57;;;;;;;15.63;10.63;;;;;;;;;;5029577;28;20028;-68
2022/06/17 00:42:23;;;;;;;17.13;11.80;;;;;;;;;;5031967;28;20029;-68
2022/06/17 00:44:58;;;;;;;18.30;12.13;;;;;;;;;;5032734;28;20082;-67
2022/06/17 00:47:26;;;;;;;18.17;12.97;;;;;;;;;;5030393;28;20121;-68
2022/06/17 00:49:58;;;;;;;19.57;13.80;;;;;;;;;;5045116;28;20448;-68
2022/06/17 00:52:43;;;;;;;24.08;12.45;;;;;;;;;;5031996;28;20036;-68
2022/06/17 00:55:11;;;;;;;19.93;12.80;;;;;;;;;;4997980;28;20473;-68
2022/06/17 00:57:39;;;;;;;17.70;12.33;;;;;;;;;;5048438;28;20013;-68
2022/06/17 01:00:04;;;;;;;22.07;13.07;;;;;;;;;;5047282;28;20107;-68
2022/06/17 01:02:33;;;;;;;19.87;12.90;;;;;;;;;;5046971;28;20637;-68
2022/06/17 01:04:59;;;;;;;29.43;13.37;;;;;;;;;;5043411;28;20028;-67
2022/06/17 01:07:28;;;;;;;19.23;12.23;;;;;;;;;;5044063;28;20023;-67
2022/06/17 01:09:58;;;;;;;21.40;12.00;;;;;;;;;;5050256;28;20025;-67
2022/06/17 01:12:35;;;;;;;18.73;12.13;;;;;;;;;;5047544;28;20021;-67
2022/06/17 01:15:01;;;;;;;21.00;12.80;;;;;;;;;;5050421;28;20024;-67
2022/06/17 01:17:26;;;;;;;19.57;13.73;;;;;;;;;;5049445;28;20020;-67
2022/06/17 01:19:55;;;;;;;23.27;13.57;;;;;;;;;;5049144;28;20045;-67
2022/06/17 01:22:26;;;;;;;20.57;12.17;;;;;;;;;;5047537;28;20033;-67
2022/06/17 01:24:53;;;;;;;21.73;12.73;;;;;;;;;;5048027;28;20036;-67
2022/06/17 01:27:21;;;;;;;21.13;13.80;;;;;;;;;;5039439;28;20040;-67
2022/06/17 01:29:46;;;;;;;20.00;12.97;;;;;;;;;;5049702;28;20025;-67
2022/06/17 01:32:12;;;;;;;25.97;12.50;;;;;;;;;;5047698;28;20358;-67
2022/06/17 01:34:38;;;;;;;21.13;11.77;;;;;;;;;;5048224;28;20049;-67
2022/06/17 01:37:03;;;;;;;21.70;11.57;;;;;;;;;;5043974;28;20067;-68
2022/06/17 01:39:28;;;;;;;19.93;12.37;;;;;;;;;;5051247;28;20029;-67
2022/06/17 01:41:53;;;;;;;21.57;11.83;;;;;;;;;;5051058;28;20098;-67
2022/06/17 01:44:25;;;;;;;20.73;12.60;;;;;;;;;;5051069;28;20090;-67
2022/06/17 01:46:52;;;;;;;22.70;12.82;;;;;;;;;;5041999;28;20032;-67
2022/06/17 01:49:20;;;;;;;17.03;12.67;;;;;;;;;;5045815;28;20393;-67
2022/06/17 01:51:54;;;;;;;20.47;13.57;;;;;;;;;;5050452;28;20465;-67
2022/06/17 01:54:25;;;;;;;22.60;15.03;;;;;;;;;;5049276;28;20031;-67
2022/06/17 01:56:53;;;;;;;20.67;12.83;;;;;;;;;;5053177;28;20067;-67
2022/06/17 01:59:29;;;;;;;20.10;13.13;;;;;;;;;;5051565;28;20282;-67
2022/06/17 02:01:55;;;;;;;18.53;12.77;;;;;;;;;;5042972;28;20496;-67
2022/06/17 02:04:23;;;;;;;19.87;13.97;;;;;;;;;;5052657;28;20017;-67
2022/06/17 02:06:58;;;;;;;22.07;13.57;;;;;;;;;;5052697;28;20069;-67
2022/06/17 02:09:24;;;;;;;22.70;14.47;;;;;;;;;;5050339;28;20040;-67
2022/06/17 02:11:49;;;;;;;24.90;14.53;;;;;;;;;;5051879;28;20029;-67
2022/06/17 02:14:14;;;;;;;20.87;14.30;;;;;;;;;;5052851;28;20056;-68
2022/06/17 02:16:41;;;;;;;23.47;14.80;;;;;;;;;;5048920;28;20083;-68
2022/06/17 02:19:06;;;;;;;17.93;12.77;;;;;;;;;;5050146;28;20496;-68
2022/06/17 02:21:43;;;;;;;17.77;11.30;;;;;;;;;;5051479;28;20090;-68
2022/06/17 02:24:09;;;;;;;16.83;10.97;;;;;;;;;;5052225;28;20476;-68
2022/06/17 02:26:36;;;;;;;21.17;12.40;;;;;;;;;;5051012;28;20059;-68
2022/06/17 02:29:03;;;;;;;18.63;12.70;;;;;;;;;;5050476;28;20028;-68
2022/06/17 02:31:30;;;;;;;16.90;11.73;;;;;;;;;;5050970;28;21878;-68
2022/06/17 02:33:56;;;;;;;20.80;12.03;;;;;;;;;;5050958;28;20036;-68
2022/06/17 02:36:24;;;;;;;20.40;12.40;;;;;;;;;;5050410;28;20779;-68
2022/06/17 02:38:52;;;;;;;21.63;13.17;;;;;;;;;;5051275;28;20037;-68
2022/06/17 02:41:19;;;;;;;17.90;13.17;;;;;;;;;;5050083;28;20027;-67
2022/06/17 02:43:56;;;;;;;22.90;14.10;;;;;;;;;;5048692;28;20428;-67
2022/06/17 02:46:26;;;;;;;20.03;14.73;;;;;;;;;;5045196;28;20136;-67
2022/06/17 02:48:57;;;;;;;25.40;16.13;;;;;;;;;;5049711;28;20048;-69
2022/06/17 02:51:23;;;;;;;23.10;16.50;;;;;;;;;;5049917;28;20377;-69
2022/06/17 02:53:49;;;;;;;23.33;14.93;;;;;;;;;;5049900;28;20059;-69
2022/06/17 02:56:16;;;;;;;26.17;14.80;;;;;;;;;;5048048;28;20021;-69
2022/06/17 02:58:45;;;;;;;27.17;15.23;;;;;;;;;;5052776;28;20063;-69
2022/06/17 03:01:21;;;;;;;25.23;16.00;;;;;;;;;;5037706;28;20072;-70
2022/06/17 03:03:47;;;;;;;23.47;15.50;;;;;;;;;;5049951;28;20048;-69
2022/06/17 03:06:21;;;;;;;24.83;16.60;;;;;;;;;;5049992;28;20053;-69
2022/06/17 03:08:48;;;;;;;26.57;16.67;;;;;;;;;;5049287;28;20017;-69
2022/06/17 03:11:14;;;;;;;23.70;16.33;;;;;;;;;;5050935;28;20408;-69
2022/06/17 03:14:00;;;;;;;21.33;13.87;;;;;;;;;;5050902;28;20021;-70
2022/06/17 03:16:26;;;;;;;17.23;12.53;;;;;;;;;;5043793;28;20459;-70
2022/06/17 03:18:51;;;;;;;21.87;14.00;;;;;;;;;;5050290;28;20033;-69
2022/06/17 03:21:20;;;;;;;24.83;15.80;;;;;;;;;;5046858;28;20070;-70
2022/06/17 03:23:51;;;;;;;18.50;13.20;;;;;;;;;;5044476;28;20080;-69
2022/06/17 03:26:18;;;;;;;18.25;13.82;;;;;;;;;;5048179;28;20029;-69
2022/06/17 03:28:45;;;;;;;19.30;12.97;;;;;;;;;;5047374;28;20028;-70
2022/06/17 03:31:25;;;;;;;18.63;13.20;;;;;;;;;;5046566;28;20100;-70
2022/06/17 03:33:56;;;;;;;16.90;12.50;;;;;;;;;;5047208;28;20058;-70
2022/06/17 03:36:30;;;;;;;17.60;12.85;;;;;;;;;;5048829;28;20013;-70
2022/06/17 03:38:56;;;;;;;24.03;12.93;;;;;;;;;;5039219;28;20504;-70
2022/06/17 03:41:25;;;;;;;22.30;14.20;;;;;;;;;;5051152;28;20079;-70
2022/06/17 03:43:53;;;;;;;20.10;14.03;;;;;;;;;;5051480;28;20033;-70
2022/06/17 03:46:20;;;;;;;19.03;13.63;;;;;;;;;;5048429;28;20033;-70
2022/06/17 03:48:47;;;;;;;18.97;12.90;;;;;;;;;;5048618;28;20028;-71
2022/06/17 03:51:17;;;;;;;23.67;12.83;;;;;;;;;;5048756;28;20025;-70
2022/06/17 03:53:43;;;;;;;23.03;13.60;;;;;;;;;;5051992;28;20025;-70
2022/06/17 03:56:43;;;;;;;18.77;13.20;;;;;;;;;;5050631;28;20461;-70
2022/06/17 03:59:11;;;;;;;24.80;12.57;;;;;;;;;;4972368;28;20054;-70
2022/06/17 04:01:42;;;;;;;19.73;12.63;;;;;;;;;;4969884;28;20594;-70
2022/06/17 04:04:27;;;;;;;26.00;12.60;;;;;;;;;;4969323;28;20026;-70
2022/06/17 04:06:55;;;;;;;24.93;11.80;;;;;;;;;;4966463;28;20042;-70
2022/06/17 04:09:21;;;;;;;20.27;11.13;;;;;;;;;;4968415;28;20031;-70
2022/06/17 04:11:48;;;;;;;18.80;10.13;;;;;;;;;;4968522;28;20019;-70
2022/06/17 04:14:26;;;;;;;16.50;9.47;;;;;;;;;;4972043;28;20451;-70
2022/06/17 04:16:52;;;;;;;16.27;8.80;;;;;;;;;;4967126;28;20090;-71
2022/06/17 04:19:19;;;;;;;14.17;8.77;;;;;;;;;;4972122;28;20053;-71
2022/06/17 04:21:45;;;;;;;12.97;7.83;;;;;;;;;;4968452;28;20120;-71
2022/06/17 04:24:15;;;;;;;16.07;8.37;;;;;;;;;;4966112;28;20051;-71
2022/06/17 04:26:42;;;;;;;16.63;7.33;;;;;;;;;;4969096;28;20407;-71
2022/06/17 04:29:10;;;;;;;10.43;7.07;;;;;;;;;;4978601;28;20025;-71
2022/06/17 04:31:35;;;;;;;12.07;7.30;;;;;;;;;;4968664;28;20479;-71
2022/06/17 04:34:05;;;;;;;12.33;6.83;;;;;;;;;;5038743;28;20040;-71
2022/06/17 04:36:33;;;;;;;15.00;7.00;;;;;;;;;;5047381;28;20484;-71
2022/06/17 04:38:59;;;;;;;11.50;7.10;;;;;;;;;;5048706;28;20556;-71
2022/06/17 04:41:26;;;;;;;14.60;7.15;;;;;;;;;;5049410;28;20116;-71
2022/06/17 04:43:54;;;;;;;12.52;7.18;;;;;;;;;;5041261;28;20484;-72
2022/06/17 04:46:28;;;;;;;11.05;7.07;;;;;;;;;;5048808;28;20036;-71
2022/06/17 04:48:57;;;;;;;15.55;7.25;;;;;;;;;;5045958;28;20079;-71
2022/06/17 04:51:22;;;;;;;10.63;6.68;;;;;;;;;;5047337;28;20039;-71
2022/06/17 04:53:48;;;;;;;9.45;6.03;;;;;;;;;;5048871;28;20017;-71
2022/06/17 04:56:15;;;;;;;9.93;6.82;;;;;;;;;;5049012;28;20428;-71
2022/06/17 04:58:41;;;;;;;9.77;6.55;;;;;;;;;;5039743;28;20025;-71
2022/06/17 05:01:14;;;;;;;10.93;6.60;;;;;;;;;;5047547;28;20041;-71
2022/06/17 05:03:39;;;;;;;9.68;6.72;;;;;;;;;;5046584;28;20431;-71
2022/06/17 05:06:04;;;;;;;10.65;6.28;;;;;;;;;;5033166;28;20039;-71
2022/06/17 05:08:36;;;;;;;10.65;6.72;;;;;;;;;;5041132;28;20135;-72
2022/06/17 05:11:22;;;;;;;8.35;5.78;;;;;;;;;;5049633;28;20527;-71
2022/06/17 05:13:57;;;;;;;15.43;6.30;;;;;;;;;;5051104;28;20040;-71
2022/06/17 05:16:22;;;;;;;13.05;6.35;;;;;;;;;;5053665;28;20024;-71
2022/06/17 05:18:48;;;;;;;8.75;6.20;;;;;;;;;;5052990;28;20032;-71
2022/06/17 05:21:18;;;;;;;12.85;6.90;;;;;;;;;;5045258;28;20032;-71
2022/06/17 05:23:43;;;;;;;8.80;6.40;;;;;;;;;;5053144;28;20032;-72
2022/06/17 05:26:09;;;;;;;10.45;6.32;;;;;;;;;;5054371;28;20465;-72
2022/06/17 05:28:34;;;;;;;10.75;6.63;;;;;;;;;;5051929;28;20075;-72
2022/06/17 05:31:00;;;;;;;11.55;6.13;;;;;;;;;;5045055;28;20056;-72
2022/06/17 05:33:25;;;;;;;12.77;6.40;;;;;;;;;;5052929;28;20024;-72
2022/06/17 05:35:50;;;;;;;8.98;6.15;;;;;;;;;;5052066;28;20072;-72
2022/06/17 05:38:15;;;;;;;13.63;6.05;;;;;;;;;;5054068;28;20044;-72
2022/06/17 05:40:41;;;;;;;9.15;5.68;;;;;;;;;;5053771;28;20028;-72
2022/06/17 05:43:07;;;;;;;12.07;5.55;;;;;;;;;;5053156;28;20541;-72
2022/06/17 05:45:32;;;;;;;10.35;5.55;;;;;;;;;;5051925;28;20029;-72
2022/06/17 05:47:58;;;;;;;10.23;5.47;;;;;;;;;;5053720;28;20035;-72
2022/06/17 05:50:24;;;;;;;11.00;5.18;;;;;;;;;;5052800;28;20108;-72
2022/06/17 05:52:54;;;;;;;10.35;5.50;;;;;;;;;;5053650;28;20547;-72
2022/06/17 05:55:19;;;;;;;9.68;5.20;;;;;;;;;;5053603;28;20388;-72
2022/06/17 05:57:45;;;;;;;7.57;5.32;;;;;;;;;;5053186;28;20025;-72
2022/06/17 06:00:11;;;;;;;12.45;5.47;;;;;;;;;;5052654;28;20035;-72
2022/06/17 06:02:36;;;;;;;7.82;5.15;;;;;;;;;;5052729;28;20062;-72
2022/06/17 06:05:01;;;;;;;10.82;4.80;;;;;;;;;;5052218;28;20021;-72
2022/06/17 06:07:27;;;;;;;7.78;4.60;;;;;;;;;;5049251;28;20067;-72
2022/06/17 06:09:52;;;;;;;8.25;4.70;;;;;;;;;;5050673;28;20032;-73
2022/06/17 06:12:18;;;;;;;9.85;4.18;;;;;;;;;;5044049;28;20018;-72
2022/06/17 06:14:43;;;;;;;9.25;4.03;;;;;;;;;;5052231;28;20016;-72
2022/06/17 06:17:10;;;;;;;7.70;4.28;;;;;;;;;;5052047;28;20051;-72
2022/06/17 06:19:35;;;;;;;10.27;4.47;;;;;;;;;;5051191;28;20017;-72
2022/06/17 06:22:00;;;;;;;7.60;4.63;;;;;;;;;;5051871;28;20017;-72
2022/06/17 06:24:26;;;;;;;8.75;4.50;;;;;;;;;;5051727;28;20021;-72
2022/06/17 06:26:51;;;;;;;14.65;4.93;;;;;;;;;;5046064;28;20088;-72
2022/06/17 06:29:16;;;;;;;11.02;5.10;;;;;;;;;;5044779;28;20025;-72
2022/06/17 06:31:41;;;;;;;9.95;5.13;;;;;;;;;;5053963;28;20024;-72
2022/06/17 06:34:08;;;;;;;10.40;4.95;;;;;;;;;;5051148;28;20021;-72
2022/06/17 06:36:33;;;;;;;8.32;4.35;;;;;;;;;;5058222;28;20016;-72
2022/06/17 06:38:58;;;;;;;10.93;4.40;;;;;;;;;;5052618;28;20036;-72
2022/06/17 06:41:23;;;;;;;9.63;4.45;;;;;;;;;;5064330;28;20029;-72
2022/06/17 06:43:49;;;;;;;10.15;4.35;;;;;;;;;;5052582;28;20040;-72
2022/06/17 06:46:15;;;;;;;8.60;4.38;;;;;;;;;;5053643;28;20028;-72
2022/06/17 06:48:41;;;;;;;9.15;3.80;;;;;;;;;;5053097;28;20708;-72
2022/06/17 06:51:06;;;;;;;9.63;3.88;;;;;;;;;;5051802;28;20033;-72
2022/06/17 06:53:31;;;;;;;8.68;4.25;;;;;;;;;;5052713;28;20017;-72
2022/06/17 06:55:57;;;;;;;8.70;4.40;;;;;;;;;;5050388;28;20021;-72
2022/06/17 06:58:23;;;;;;;7.63;4.20;;;;;;;;;;5048749;28;20029;-72
2022/06/17 07:00:52;;;;;;;8.73;4.20;;;;;;;;;;5052825;28;20021;-72
2022/06/17 07:03:18;;;;;;;11.23;4.43;;;;;;;;;;5052342;28;20025;-72
2022/06/17 07:05:48;;;;;;;8.75;4.00;;;;;;;;;;5052574;28;20122;-72
2022/06/17 07:08:14;;;;;;;9.10;4.30;;;;;;;;;;5051820;28;20090;-72
2022/06/17 07:10:40;;;;;;;13.05;4.82;;;;;;;;;;5052487;28;20078;-72
2022/06/17 07:13:08;;;;;;;10.65;4.72;;;;;;;;;;5051546;28;20481;-72
2022/06/17 07:15:34;;;;;;;13.10;4.90;;;;;;;;;;5051074;28;20063;-72
2022/06/17 07:18:01;;;;;;;13.25;4.88;;;;;;;;;;5051665;28;20706;-72
2022/06/17 07:20:28;;;;;;;9.52;4.28;;;;;;;;;;5047856;28;20083;-72
2022/06/17 07:22:53;;;;;;;8.43;4.35;;;;;;;;;;5050790;28;20469;-72
2022/06/17 07:25:19;;;;;;;10.73;4.38;;;;;;;;;;5044108;28;20021;-72
2022/06/17 07:27:45;;;;;;;9.60;4.32;;;;;;;;;;5051069;28;20017;-72
2022/06/17 07:30:14;;;;;;;7.63;4.13;;;;;;;;;;5045615;28;20032;-72
2022/06/17 07:32:39;;;;;;;7.53;4.03;;;;;;;;;;5046091;28;20017;-72
2022/06/17 07:35:05;;;;;;;10.02;4.03;;;;;;;;;;5039224;28;20013;-72
2022/06/17 07:40:14;;;;;;;8.88;3.78;;;;;;;;;;5040810;28;20051;-72
2022/06/17 07:42:39;;;;;;;7.93;3.40;;;;;;;;;;5032077;28;20029;-72
2022/06/17 07:45:06;;;;;;;8.00;3.38;;;;;;;;;;5051733;28;20025;-72
2022/06/17 07:47:31;;;;;;;8.10;3.95;;;;;;;;;;5040283;28;20100;-72
2022/06/17 07:49:57;;;;;;;8.60;3.40;;;;;;;;;;5049795;28;20159;-72
2022/06/17 07:52:22;;;;;;;10.65;3.45;;;;;;;;;;5050826;28;20021;-72
2022/06/17 07:54:47;;;;;;;5.88;3.20;;;;;;;;;;5049198;28;20025;-72
2022/06/17 07:57:12;;;;;;;7.28;3.00;;;;;;;;;;5047143;28;20093;-72
2022/06/17 07:59:38;;;;;;;8.60;3.30;;;;;;;;;;5039677;28;20078;-72
2022/06/17 08:02:03;;;;;;;7.20;3.00;;;;;;;;;;5044673;28;20072;-72
2022/06/17 08:04:29;;;;;;;6.57;2.80;;;;;;;;;;5044312;28;20391;-73
2022/06/17 08:06:54;;;;;;;5.95;2.72;;;;;;;;;;5050374;28;20034;-72
2022/06/17 08:09:20;;;;;;;9.35;2.90;;;;;;;;;;5051434;28;20025;-72
2022/06/17 08:11:45;;;;;;;5.57;2.63;;;;;;;;;;5050681;28;20023;-72
2022/06/17 08:14:11;;;;;;;6.82;2.30;;;;;;;;;;5049380;28;20017;-72
2022/06/17 08:16:37;;;;;;;6.90;2.10;;;;;;;;;;5047453;28;20028;-72
2022/06/17 08:19:04;;;;;;;8.05;2.30;;;;;;;;;;5042664;28;20055;-72
2022/06/17 08:21:29;;;;;;;6.85;2.55;;;;;;;;;;5047814;28;20087;-72
2022/06/17 08:23:55;;;;;;;6.30;2.53;;;;;;;;;;5051280;28;20473;-72
2022/06/17 08:26:20;;;;;;;8.90;2.55;;;;;;;;;;5049603;28;20111;-72
2022/06/17 08:28:45;;;;;;;7.45;3.03;;;;;;;;;;5043777;28;20024;-72
2022/06/17 08:31:10;;;;;;;5.05;2.30;;;;;;;;;;5046289;28;20028;-72
2022/06/17 08:33:36;;;;;;;6.38;2.40;;;;;;;;;;5052429;28;20021;-72
2022/06/17 08:36:06;;;;;;;7.68;2.63;;;;;;;;;;5043238;28;20032;-72
2022/06/17 08:38:32;;;;;;;7.95;2.65;;;;;;;;;;5049887;28;20060;-72
2022/06/17 08:40:58;;;;;;;8.82;2.70;;;;;;;;;;5050242;28;20029;-72
2022/06/17 08:43:36;;;;;;;6.13;2.58;;;;;;;;;;5050939;28;20385;-72
2022/06/17 08:46:13;;;;;;;8.00;2.75;;;;;;;;;;5047550;28;20021;-72
2022/06/17 08:48:39;;;;;;;7.72;2.50;;;;;;;;;;5051320;28;20534;-72
2022/06/17 08:51:19;;;;;;;7.93;2.55;;;;;;;;;;5049247;28;20032;-72
2022/06/17 08:53:47;;;;;;;4.53;2.38;;;;;;;;;;5049917;28;20024;-72
2022/06/17 08:56:20;;;;;;;5.43;2.25;;;;;;;;;;5050649;28;20092;-73
2022/06/17 08:58:55;;;;;;;7.07;2.70;;;;;;;;;;5047213;28;20028;-72
2022/06/17 09:01:30;;;;;;;6.18;2.50;;;;;;;;;;5050754;28;20839;-72
2022/06/17 09:04:11;;;;;;;10.27;2.60;;;;;;;;;;5048653;28;20028;-72
2022/06/17 09:06:54;;;;;;;12.10;2.65;;;;;;;;;;5047873;28;20056;-73
2022/06/17 09:09:20;;;;;;;10.45;2.88;;;;;;;;;;5050141;28;20404;-72
2022/06/17 09:12:06;;;;;;;9.77;2.60;;;;;;;;;;5049693;28;20016;-72
2022/06/17 09:14:54;;;;;;;9.27;2.70;;;;;;;;;;5051140;28;20256;-72
2022/06/17 09:17:42;;;;;;;9.55;2.70;;;;;;;;;;5049241;28;20459;-72
2022/06/17 09:20:10;;;;;;;7.38;2.92;;;;;;;;;;5039624;28;20032;-73
2022/06/17 09:22:39;;;;;;;8.02;3.10;;;;;;;;;;5046384;28;20140;-73
2022/06/17 09:25:06;;;;;;;6.65;2.70;;;;;;;;;;5050188;28;20419;-73
2022/06/17 09:27:34;;;;;;;8.27;2.55;;;;;;;;;;5049394;28;20112;-73
2022/06/17 09:30:02;;;;;;;6.90;2.90;;;;;;;;;;5050735;28;20037;-73
2022/06/17 09:32:38;;;;;;;8.00;3.25;;;;;;;;;;5047685;28;20021;-72
2022/06/17 09:35:04;;;;;;;10.95;2.72;;;;;;;;;;5046663;28;20039;-70
2022/06/17 09:37:43;;;;;;;6.28;2.90;;;;;;;;;;5050576;28;20025;-70
2022/06/17 09:40:08;;;;;;;11.95;3.65;;;;;;;;;;5049704;28;20032;-72
2022/06/17 09:42:57;;;;;;;5.63;2.70;;;;;;;;;;5048311;28;20022;-72
2022/06/17 09:45:50;;;;;;;8.15;2.85;;;;;;;;;;5036374;28;20274;-72
2022/06/17 09:48:16;;;;;;;10.00;2.80;;;;;;;;;;5050311;28;20020;-72
2022/06/17 09:50:44;;;;;;;7.82;2.53;;;;;;;;;;5046045;28;20491;-73
2022/06/17 09:53:17;;;;;;;9.23;2.80;;;;;;;;;;5049267;28;20033;-72
2022/06/17 09:55:46;;;;;;;6.50;2.50;;;;;;;;;;5044793;28;20021;-72
2022/06/17 09:58:20;;;;;;;7.38;2.67;;;;;;;;;;5049739;28;20021;-72
2022/06/17 10:00:47;;;;;;;11.98;2.50;;;;;;;;;;5052905;28;20025;-72
2022/06/17 10:03:32;;;;;;;5.35;2.60;;;;;;;;;;5046291;28;20094;-73
2022/06/17 10:06:00;;;;;;;5.15;2.20;;;;;;;;;;5040693;28;20017;-72
2022/06/17 10:08:32;;;;;;;7.50;2.35;;;;;;;;;;5046353;28;20055;-73
2022/06/17 10:11:03;;;;;;;11.98;3.10;;;;;;;;;;5047399;28;20029;-73
2022/06/17 10:13:34;;;;;;;6.75;2.75;;;;;;;;;;5045834;28;20016;-73
2022/06/17 10:19:00;;;;;;;8.55;2.25;;;;;;;;;;5049730;28;20036;-73
2022/06/17 10:21:44;;;;;;;7.93;3.00;;;;;;;;;;5049501;28;20040;-73
2022/06/17 10:24:31;;;;;;;4.53;2.08;;;;;;;;;;5043854;28;20067;-73
2022/06/17 10:27:12;;;;;;;4.68;2.22;;;;;;;;;;5048842;28;20020;-73
2022/06/17 10:30:03;;;;;;;7.43;2.63;;;;;;;;;;5033672;28;20049;-73
2022/06/17 10:32:31;;;;;;;6.03;2.83;;;;;;;;;;5031334;28;20342;-73
2022/06/17 10:34:58;;;;;;;5.78;2.20;;;;;;;;;;5039472;28;20021;-73
2022/06/17 10:37:24;;;;;;;5.43;2.40;;;;;;;;;;5053289;28;20029;-73
2022/06/17 10:39:50;;;;;;;6.22;2.40;;;;;;;;;;5053596;28;20097;-73
2022/06/17 10:42:16;;;;;;;8.20;2.30;;;;;;;;;;5051325;28;20028;-72
2022/06/17 10:44:43;;;;;;;5.95;2.20;;;;;;;;;;5052327;28;20087;-72
2022/06/17 10:47:18;;;;;;;9.02;2.30;;;;;;;;;;5051490;28;20028;-72
2022/06/17 10:49:46;;;;;;;5.05;2.38;;;;;;;;;;5033978;28;20025;-72
2022/06/17 10:52:17;;;;;;;5.85;2.35;;;;;;;;;;5052332;28;20024;-72
2022/06/17 10:54:43;;;;;;;7.63;2.67;;;;;;;;;;5052234;28;20029;-72
2022/06/17 10:57:12;;;;;;;7.10;2.40;;;;;;;;;;5053073;28;20032;-72
2022/06/17 10:59:41;;;;;;;6.55;2.40;;;;;;;;;;5052714;28;20055;-72
2022/06/17 11:02:21;;;;;;;5.68;2.38;;;;;;;;;;5053414;28;20029;-72
2022/06/17 11:04:54;;;;;;;6.82;2.35;;;;;;;;;;5051606;28;20032;-72
2022/06/17 11:07:23;;;;;;;6.20;2.38;;;;;;;;;;5053201;28;20386;-72
2022/06/17 11:09:51;;;;;;;8.77;2.60;;;;;;;;;;5052714;28;20024;-72
2022/06/17 11:12:19;;;;;;;6.30;2.33;;;;;;;;;;5052760;28;20100;-72
2022/06/17 11:14:45;;;;;;;4.57;2.20;;;;;;;;;;5052287;28;20480;-72
2022/06/17 11:17:16;;;;;;;7.57;2.40;;;;;;;;;;5052787;28;20104;-72
2022/06/17 11:19:42;;;;;;;10.15;2.35;;;;;;;;;;5045851;28;20029;-72
2022/06/17 11:22:18;;;;;;;8.70;2.30;;;;;;;;;;5052635;28;20025;-72
2022/06/17 11:24:48;;;;;;;6.15;2.17;;;;;;;;;;5052789;28;20115;-72
2022/06/17 11:27:25;;;;;;;4.70;2.28;;;;;;;;;;5052282;28;20025;-72
2022/06/17 11:29:52;;;;;;;6.75;2.30;;;;;;;;;;5052622;28;20029;-72
2022/06/17 11:32:20;;;;;;;6.55;2.30;;;;;;;;;;5052498;28;20021;-72
2022/06/17 11:34:54;;;;;;;5.70;2.70;;;;;;;;;;5045060;28;20495;-72
2022/06/17 11:37:19;;;;;;;4.65;2.50;;;;;;;;;;5052201;28;20020;-72
2022/06/17 11:39:44;;;;;;;6.88;2.50;;;;;;;;;;5050904;28;20021;-72
2022/06/17 11:42:13;;;;;;;7.32;2.13;;;;;;;;;;5032525;28;20182;-72
2022/06/17 11:44:40;;;;;;;6.75;2.08;;;;;;;;;;5032287;28;20104;-72
2022/06/17 11:47:05;;;;;;;6.50;2.20;;;;;;;;;;5032273;28;20026;-72
2022/06/17 11:49:35;;;;;;;7.55;2.17;;;;;;;;;;5034454;28;20072;-72
2022/06/17 11:52:02;;;;;;;6.88;1.90;;;;;;;;;;5051228;28;20033;-72
2022/06/17 11:54:38;;;;;;;6.32;2.00;;;;;;;;;;5051775;28;20017;-72
2022/06/17 11:57:20;;;;;;;6.03;2.20;;;;;;;;;;5051544;28;20528;-72
2022/06/17 11:59:48;;;;;;;4.80;1.92;;;;;;;;;;5051855;28;20033;-72
2022/06/17 12:02:14;;;;;;;4.65;2.20;;;;;;;;;;5059786;28;20031;-72
2022/06/17 12:04:47;;;;;;;5.53;1.98;;;;;;;;;;5051012;28;20021;-72
2022/06/17 12:07:31;;;;;;;5.90;1.80;;;;;;;;;;5048865;28;20083;-72
2022/06/17 12:10:10;;;;;;;6.32;2.30;;;;;;;;;;5038844;28;20940;-72
2022/06/17 12:12:36;;;;;;;5.88;2.05;;;;;;;;;;5042670;28;20020;-72
2022/06/17 12:15:03;;;;;;;6.38;1.80;;;;;;;;;;5048545;28;20021;-72
2022/06/17 12:17:29;;;;;;;4.05;1.83;;;;;;;;;;5040642;28;20130;-72
2022/06/17 12:19:54;;;;;;;8.00;2.08;;;;;;;;;;5043363;28;20104;-72
2022/06/17 12:22:32;;;;;;;5.03;2.05;;;;;;;;;;5049291;28;20052;-72
2022/06/17 12:25:16;;;;;;;6.05;2.10;;;;;;;;;;5044676;28;20032;-72
2022/06/17 12:27:47;;;;;;;5.70;2.10;;;;;;;;;;5042019;28;20469;-72
2022/06/17 12:30:14;;;;;;;5.18;1.90;;;;;;;;;;5049381;28;20029;-72
2022/06/17 12:32:55;;;;;;;5.43;2.08;;;;;;;;;;5049354;28;20039;-72
2022/06/17 12:35:21;;;;;;;6.35;2.13;;;;;;;;;;5044292;28;20028;-73
2022/06/17 12:38:05;;;;;;;6.28;1.83;;;;;;;;;;5047807;28;20131;-72
2022/06/17 12:40:49;;;;;;;6.20;2.08;;;;;;;;;;5050241;28;20070;-72
2022/06/17 12:43:17;;;;;;;4.95;2.00;;;;;;;;;;5049730;28;20021;-72
2022/06/17 12:45:50;;;;;;;6.57;2.40;;;;;;;;;;5041173;28;20112;-72
2022/06/17 12:48:33;;;;;;;4.88;1.77;;;;;;;;;;5047988;28;20049;-72
2022/06/17 12:54:15;;;;;;;7.93;2.00;;;;;;;;;;5034027;28;20051;-72
2022/06/17 12:56:40;;;;;;;5.22;1.95;;;;;;;;;;5048657;28;20029;-72
2022/06/17 12:59:19;;;;;;;4.63;1.88;;;;;;;;;;5049616;28;20033;-72
2022/06/17 13:01:54;;;;;;;11.20;1.73;;;;;;;;;;5056017;28;20055;-72
2022/06/17 13:04:31;;;;;;;5.90;2.45;;;;;;;;;;5043166;28;20025;-73
2022/06/17 13:07:14;;;;;;;5.40;1.70;;;;;;;;;;5047427;28;20108;-73
2022/06/17 13:09:39;;;;;;;6.32;1.80;;;;;;;;;;5047476;28;20048;-72
2022/06/17 13:12:06;;;;;;;6.65;1.83;;;;;;;;;;5049818;28;20016;-72
2022/06/17 13:14:31;;;;;;;4.82;1.83;;;;;;;;;;5040940;28;20021;-73
2022/06/17 13:17:08;;;;;;;5.30;1.80;;;;;;;;;;5051128;28;20532;-73
2022/06/17 13:19:38;;;;;;;4.00;1.80;;;;;;;;;;5041367;28;20290;-73
2022/06/17 13:22:06;;;;;;;7.88;1.80;;;;;;;;;;5051135;28;20059;-73
2022/06/17 13:24:44;;;;;;;5.93;1.73;;;;;;;;;;5040750;28;20051;-73
2022/06/17 13:27:21;;;;;;;8.23;1.90;;;;;;;;;;5050948;28;20032;-73
2022/06/17 13:29:46;;;;;;;5.05;1.77;;;;;;;;;;5044242;28;20033;-72
2022/06/17 13:32:15;;;;;;;7.82;1.90;;;;;;;;;;5045738;28;20012;-72
2022/06/17 13:34:50;;;;;;;5.10;2.10;;;;;;;;;;5045886;28;20059;-72
2022/06/17 13:37:17;;;;;;;4.75;1.80;;;;;;;;;;5046359;28;20013;-72
2022/06/17 13:39:46;;;;;;;4.82;1.92;;;;;;;;;;5051806;28;20021;-72
2022/06/17 13:42:13;;;;;;;5.43;1.90;;;;;;;;;;5054050;28;20029;-72
2022/06/17 13:44:41;;;;;;;6.53;2.00;;;;;;;;;;5054431;28;20020;-72
2022/06/17 13:47:16;;;;;;;4.75;1.80;;;;;;;;;;5054235;28;20025;-72
2022/06/17 13:49:53;;;;;;;7.30;1.98;;;;;;;;;;5053036;28;20025;-72
2022/06/17 13:52:38;;;;;;;3.70;1.65;;;;;;;;;;5054224;28;20021;-72
2022/06/17 13:55:12;;;;;;;4.70;1.80;;;;;;;;;;5054167;28;20075;-72
2022/06/17 13:57:42;;;;;;;5.80;2.10;;;;;;;;;;5036298;28;20021;-72
2022/06/17 14:00:19;;;;;;;9.05;2.08;;;;;;;;;;5053397;28;20463;-72
2022/06/17 14:02:50;;;;;;;6.53;2.00;;;;;;;;;;5053977;28;20384;-72
2022/06/17 14:05:34;;;;;;;7.93;2.00;;;;;;;;;;5053222;28;20130;-72
2022/06/17 14:08:05;;;;;;;5.35;1.70;;;;;;;;;;5053669;28;20028;-72
2022/06/17 14:10:30;;;;;;;4.22;1.90;;;;;;;;;;5053525;28;20025;-72
2022/06/17 14:12:55;;;;;;;3.60;1.70;;;;;;;;;;5068774;28;20029;-72
2022/06/17 14:15:44;;;;;;;6.45;1.90;;;;;;;;;;5062313;28;20798;-72
2022/06/17 14:18:18;;;;;;;5.38;1.90;;;;;;;;;;5015986;28;20041;-72
2022/06/17 14:20:45;;;;;;;4.47;1.90;;;;;;;;;;5051109;28;20051;-72
2022/06/17 14:23:25;;;;;;;6.93;1.67;;;;;;;;;;5053966;28;20428;-72
2022/06/17 14:25:57;;;;;;;6.72;1.80;;;;;;;;;;5053444;28;20506;-72
2022/06/17 14:28:31;;;;;;;3.60;1.45;;;;;;;;;;5053714;28;20436;-72
2022/06/17 14:31:35;;;;;;;4.15;1.50;;;;;;;;;;5053894;28;20473;-72
2022/06/17 14:34:06;;;;;;;4.35;1.83;;;;;;;;;;4992116;28;20040;-72
2022/06/17 14:36:55;;;;;;;3.92;1.80;;;;;;;;;;4991623;28;20014;-72
2022/06/17 14:39:39;;;;;;;4.53;1.75;;;;;;;;;;4982222;28;20105;-72
2022/06/17 14:42:10;;;;;;;3.75;1.60;;;;;;;;;;4991335;28;20030;-72
2022/06/17 14:44:37;;;;;;;8.70;2.05;;;;;;;;;;4990609;28;20034;-72
2022/06/17 14:47:31;;;;;;;5.55;1.60;;;;;;;;;;4991816;28;20026;-72
2022/06/17 14:49:59;;;;;;;3.60;1.60;;;;;;;;;;4991861;28;20034;-72
2022/06/17 14:52:27;;;;;;;5.10;1.75;;;;;;;;;;4990904;28;20109;-72
2022/06/17 14:55:15;;;;;;;5.03;1.60;;;;;;;;;;4991388;28;20411;-72
2022/06/17 14:57:45;;;;;;;5.57;1.55;;;;;;;;;;4964211;28;20027;-73